createdAt,value
2023-03-02T00:00:30.274Z,-3.73
2023-03-02T00:05:34.506Z,-3.82
2023-03-02T00:10:38.754Z,-3.94
2023-03-02T00:15:40.851Z,-4.02
2023-03-02T00:20:42.580Z,-4.04
2023-03-02T00:25:44.613Z,-3.97
2023-03-02T00:30:46.313Z,-3.89
2023-03-02T00:35:49.127Z,-3.92
2023-03-02T00:40:51.939Z,-3.99
2023-03-02T00:45:55.520Z,-4.10
2023-03-02T00:51:00.955Z,-4.20
2023-03-02T00:56:03.135Z,-4.29
2023-03-02T01:01:11.748Z,-4.36
2023-03-02T01:06:20.042Z,-4.44
2023-03-02T01:11:22.909Z,-4.50
2023-03-02T01:16:26.153Z,-4.49
2023-03-02T01:21:27.931Z,-4.40
2023-03-02T01:26:29.866Z,-4.31
2023-03-02T01:31:31.818Z,-4.31
2023-03-02T01:36:34.577Z,-4.32
2023-03-02T01:41:36.533Z,-4.34
2023-03-02T01:46:38.368Z,-4.36
2023-03-02T01:51:47.860Z,-4.37
2023-03-02T01:56:52.690Z,-4.34
2023-03-02T02:01:58.623Z,-4.31
2023-03-02T02:07:03.665Z,-4.31
2023-03-02T02:12:06.039Z,-4.36
2023-03-02T02:17:10.086Z,-4.45
2023-03-02T02:22:15.321Z,-4.51
2023-03-02T02:27:17.032Z,-4.55
2023-03-02T02:32:26.446Z,-4.50
2023-03-02T02:37:42.528Z,-4.38
2023-03-02T02:42:48.349Z,-4.35
2023-03-02T02:47:52.312Z,-4.40
2023-03-02T02:53:05.512Z,-4.51
2023-03-02T02:58:25.157Z,-4.63
2023-03-02T03:03:33.799Z,-4.66
2023-03-02T03:08:46.271Z,-4.62
2023-03-02T03:14:00.856Z,-4.53
2023-03-02T03:19:13.113Z,-4.51
2023-03-02T03:24:15.248Z,-4.60
2023-03-02T03:29:18.919Z,-4.71
2023-03-02T03:34:23.210Z,-4.80
2023-03-02T03:39:25.359Z,-4.87
2023-03-02T03:44:27.463Z,-4.87
2023-03-02T03:49:29.446Z,-4.83
2023-03-02T03:54:31.521Z,-4.77
2023-03-02T03:59:34.151Z,-4.74
2023-03-02T04:04:37.913Z,-4.74
2023-03-02T04:09:46.288Z,-4.77
2023-03-02T04:14:49.507Z,-4.75
2023-03-02T04:19:52.490Z,-4.71
2023-03-02T04:24:54.517Z,-4.70
2023-03-02T04:29:56.411Z,-4.72
2023-03-02T04:34:58.739Z,-4.77
2023-03-02T04:40:01.452Z,-4.79
2023-03-02T04:45:03.274Z,-4.74
2023-03-02T04:50:05.742Z,-4.64
2023-03-02T04:55:08.262Z,-4.65
2023-03-02T05:00:10.934Z,-4.72
2023-03-02T05:05:17.343Z,-4.78
2023-03-02T05:10:19.467Z,-4.86
2023-03-02T05:15:40.956Z,-4.86
2023-03-02T05:20:43.068Z,-4.81
2023-03-02T05:25:44.846Z,-4.81
2023-03-02T05:30:47.643Z,-4.78
2023-03-02T05:35:49.430Z,-4.73
2023-03-02T05:40:51.129Z,-4.74
2023-03-02T05:45:52.846Z,-4.75
2023-03-02T05:50:54.656Z,-4.69
2023-03-02T05:55:56.637Z,-4.53
2023-03-02T06:00:58.516Z,-4.36
2023-03-02T06:06:00.171Z,-4.22
2023-03-02T06:11:01.864Z,-4.06
2023-03-02T06:16:04.051Z,-3.50
2023-03-02T06:21:06.200Z,-2.54
2023-03-02T06:26:11.026Z,-1.79
2023-03-02T06:31:13.033Z,-0.81
2023-03-02T06:36:16.962Z,0.34
2023-03-02T06:41:18.861Z,1.07
2023-03-02T06:46:20.555Z,1.55
2023-03-02T06:51:22.324Z,2.21
2023-03-02T06:56:23.952Z,3.39
2023-03-02T07:01:25.952Z,4.49
2023-03-02T07:06:27.901Z,5.65
2023-03-02T07:11:29.638Z,7.05
2023-03-02T07:16:33.843Z,7.84
2023-03-02T07:21:35.625Z,8.45
2023-03-02T07:26:37.378Z,8.92
2023-03-02T07:31:39.329Z,9.36
2023-03-02T07:36:41.049Z,9.89
2023-03-02T07:41:42.684Z,10.35
2023-03-02T07:46:44.513Z,10.67
2023-03-02T07:51:46.270Z,11.20
2023-03-02T07:56:48.019Z,11.79
2023-03-02T08:01:50.231Z,12.25
2023-03-02T08:06:52.338Z,12.47
2023-03-02T08:11:54.005Z,12.55
2023-03-02T08:16:55.679Z,12.66
2023-03-02T08:21:57.541Z,12.75
2023-03-02T08:27:03.329Z,13.10
2023-03-02T08:32:05.492Z,13.55
2023-03-02T08:37:07.261Z,13.98
2023-03-02T08:42:08.973Z,13.93
2023-03-02T08:47:10.689Z,14.06
2023-03-02T08:52:15.207Z,14.40
2023-03-02T08:57:16.919Z,14.56
2023-03-02T09:02:18.715Z,14.13
2023-03-02T09:07:20.540Z,14.04
2023-03-02T09:12:22.300Z,14.26
2023-03-02T09:17:24.103Z,14.09
2023-03-02T09:22:25.928Z,13.84
2023-03-02T09:27:27.842Z,13.64
2023-03-02T09:32:29.662Z,13.70
2023-03-02T09:37:31.561Z,13.49
2023-03-02T09:42:55.699Z,12.94
2023-03-02T09:48:16.432Z,12.20
2023-03-02T09:53:53.039Z,11.38
2023-03-02T09:59:12.605Z,10.82
2023-03-02T10:04:31.695Z,10.38
2023-03-02T10:09:33.475Z,9.99
2023-03-02T10:14:44.334Z,9.71
2023-03-02T10:20:00.450Z,9.43
2023-03-02T10:25:17.705Z,9.17
2023-03-02T10:30:31.762Z,8.94
2023-03-02T10:35:34.494Z,8.74
2023-03-02T10:40:47.427Z,8.51
2023-03-02T10:46:02.552Z,8.26
2023-03-02T10:51:04.813Z,8.20
2023-03-02T10:56:06.990Z,8.21
2023-03-02T11:01:17.580Z,8.18
2023-03-02T11:06:20.738Z,8.12
2023-03-02T11:11:24.634Z,8.12
2023-03-02T11:16:31.796Z,8.13
2023-03-02T11:21:41.831Z,8.12
2023-03-02T11:26:54.007Z,8.14
2023-03-02T11:32:09.031Z,8.16
2023-03-02T11:37:43.150Z,8.17
2023-03-02T11:42:46.040Z,8.23
2023-03-02T11:48:02.404Z,8.26
2023-03-02T11:53:11.861Z,8.26
2023-03-02T11:58:19.602Z,8.26
2023-03-02T12:03:41.604Z,8.26
2023-03-02T12:08:47.791Z,8.28
2023-03-02T12:13:49.661Z,8.29
2023-03-02T12:18:52.862Z,8.32
2023-03-02T12:23:58.342Z,8.35
2023-03-02T12:29:05.321Z,8.35
2023-03-02T12:34:22.425Z,8.37
2023-03-02T12:39:57.171Z,8.38
2023-03-02T12:45:25.708Z,8.41
2023-03-02T12:50:31.070Z,8.43
2023-03-02T12:55:34.458Z,8.48
2023-03-02T13:00:37.122Z,8.52
2023-03-02T13:05:39.100Z,8.57
2023-03-02T13:10:44.274Z,8.61
2023-03-02T13:15:50.413Z,8.62
2023-03-02T13:20:52.589Z,8.63
2023-03-02T13:26:00.423Z,8.65
2023-03-02T13:31:17.667Z,8.65
2023-03-02T13:36:34.407Z,8.64
2023-03-02T13:41:37.561Z,8.61
2023-03-02T13:46:41.785Z,8.58
2023-03-02T13:51:47.698Z,8.57
2023-03-02T13:56:52.153Z,8.55
2023-03-02T14:01:53.915Z,8.54
2023-03-02T14:06:55.626Z,8.54
2023-03-02T14:11:57.926Z,8.53
2023-03-02T14:16:59.676Z,8.48
2023-03-02T14:22:01.386Z,8.51
2023-03-02T14:27:03.256Z,8.52
2023-03-02T14:32:06.727Z,8.52
2023-03-02T14:37:18.000Z,8.50
2023-03-02T14:42:21.172Z,8.47
2023-03-02T14:47:24.116Z,8.41
2023-03-02T14:52:55.030Z,8.35
2023-03-02T14:58:03.683Z,8.28
2023-03-02T15:03:05.513Z,8.22
2023-03-02T15:08:11.973Z,8.17
2023-03-02T15:13:14.671Z,8.10
2023-03-02T15:18:19.747Z,8.03
2023-03-02T15:23:21.668Z,7.95
2023-03-02T15:28:23.461Z,7.88
2023-03-02T15:33:25.137Z,7.82
2023-03-02T15:38:27.183Z,7.75
2023-03-02T15:43:28.899Z,7.65
2023-03-02T15:48:30.611Z,7.56
2023-03-02T15:53:36.776Z,7.46
2023-03-02T15:58:40.620Z,7.34
2023-03-02T16:03:43.659Z,7.21
2023-03-02T16:08:45.635Z,7.04
2023-03-02T16:13:47.331Z,6.84
2023-03-02T16:18:56.388Z,6.62
2023-03-02T16:24:04.492Z,6.39
2023-03-02T16:29:08.136Z,6.20
2023-03-02T16:34:10.849Z,6.02
2023-03-02T16:39:14.103Z,5.85
2023-03-02T16:44:16.211Z,5.66
2023-03-02T16:49:17.869Z,5.47
2023-03-02T16:54:19.622Z,5.28
2023-03-02T16:59:21.373Z,5.05
2023-03-02T17:04:23.183Z,4.83
2023-03-02T17:09:24.973Z,4.66
2023-03-02T17:14:27.979Z,4.61
2023-03-02T17:19:29.781Z,4.56
2023-03-02T17:24:31.821Z,4.53
2023-03-02T17:29:33.528Z,4.49
2023-03-02T17:34:35.283Z,4.41
2023-03-02T17:39:38.355Z,4.30
2023-03-02T17:44:40.683Z,4.20
2023-03-02T17:49:46.273Z,4.03
2023-03-02T17:54:48.039Z,3.80
2023-03-02T17:59:50.520Z,3.58
2023-03-02T18:04:52.207Z,3.40
2023-03-02T18:09:53.858Z,3.26
2023-03-02T18:14:55.649Z,3.17
2023-03-02T18:19:57.360Z,3.10
2023-03-02T18:24:59.152Z,3.00
2023-03-02T18:30:00.904Z,2.90
2023-03-02T18:35:02.694Z,2.80
2023-03-02T18:40:06.497Z,2.76
2023-03-02T18:45:09.666Z,2.74
2023-03-02T18:50:12.149Z,2.73
2023-03-02T18:55:14.378Z,2.71
2023-03-02T19:00:21.608Z,2.68
2023-03-02T19:05:26.788Z,2.64
2023-03-02T19:10:28.484Z,2.64
2023-03-02T19:15:33.040Z,2.63
2023-03-02T19:20:35.465Z,2.61
2023-03-02T19:25:37.292Z,2.56
2023-03-02T19:30:40.220Z,2.51
2023-03-02T19:35:42.135Z,2.45
2023-03-02T19:40:43.808Z,2.37
2023-03-02T19:45:45.625Z,2.30
2023-03-02T19:50:48.104Z,2.27
2023-03-02T19:55:52.315Z,2.26
2023-03-02T20:00:54.559Z,2.24
2023-03-02T20:05:58.838Z,2.19
2023-03-02T20:11:00.608Z,2.09
2023-03-02T20:16:03.377Z,2.01
2023-03-02T20:21:05.978Z,1.96
2023-03-02T20:26:08.832Z,1.91
2023-03-02T20:31:14.700Z,1.83
2023-03-02T20:36:20.311Z,1.77
2023-03-02T20:41:22.709Z,1.74
2023-03-02T20:46:33.373Z,1.70
2023-03-02T20:51:37.476Z,1.59
2023-03-02T20:56:39.232Z,1.43
2023-03-02T21:01:42.441Z,1.26
2023-03-02T21:06:44.658Z,1.15
2023-03-02T21:11:46.798Z,1.04
2023-03-02T21:16:48.637Z,0.94
2023-03-02T21:21:50.358Z,0.80
2023-03-02T21:26:54.007Z,0.67
2023-03-02T21:31:55.793Z,0.60
2023-03-02T21:36:57.818Z,0.52
2023-03-02T21:42:00.188Z,0.41
2023-03-02T21:47:01.871Z,0.39
2023-03-02T21:52:04.091Z,0.36
2023-03-02T21:57:08.218Z,0.31
2023-03-02T22:02:11.579Z,0.23
2023-03-02T22:07:13.884Z,0.12
2023-03-02T22:12:16.276Z,0.05
2023-03-02T22:17:24.650Z,0.01
2023-03-02T22:22:30.452Z,-0.03
2023-03-02T22:27:34.684Z,-0.09
2023-03-02T22:32:38.492Z,-0.12
2023-03-02T22:37:40.292Z,-0.17
2023-03-02T22:43:08.645Z,-0.27
2023-03-02T22:48:22.097Z,-0.47
2023-03-02T22:53:32.481Z,-0.71
2023-03-02T22:58:48.492Z,-0.82
2023-03-02T23:04:08.446Z,-0.84
2023-03-02T23:09:11.828Z,-0.81
2023-03-02T23:14:33.189Z,-0.82
2023-03-02T23:19:35.077Z,-0.84
2023-03-02T23:24:36.790Z,-0.83
2023-03-02T23:29:38.765Z,-0.86
2023-03-02T23:34:40.724Z,-0.94
2023-03-02T23:39:44.413Z,-1.07
2023-03-02T23:44:47.505Z,-1.20
2023-03-02T23:49:49.839Z,-1.26
2023-03-02T23:54:51.525Z,-1.35
2023-03-02T23:59:53.257Z,-1.48
